createdAt,value
2022-11-07T00:00:30.087Z,13.20
2022-11-07T00:02:56.946Z,14.70
2022-11-07T00:05:23.861Z,14.87
2022-11-07T00:07:50.711Z,13.97
2022-11-07T00:10:17.589Z,12.87
2022-11-07T00:12:44.373Z,10.37
2022-11-07T00:15:11.370Z,12.27
2022-11-07T00:17:38.196Z,11.93
2022-11-07T00:20:06.575Z,14.30
2022-11-07T00:22:33.353Z,12.70
2022-11-07T00:25:00.329Z,13.87
2022-11-07T00:27:27.190Z,13.33
2022-11-07T00:29:54.085Z,9.47
2022-11-07T00:32:22.195Z,16.40
2022-11-07T00:34:49.010Z,16.27
2022-11-07T00:37:15.792Z,19.00
2022-11-07T00:39:42.597Z,15.53
2022-11-07T00:42:09.394Z,10.90
2022-11-07T00:44:36.241Z,14.90
2022-11-07T00:47:03.047Z,11.77
2022-11-07T00:49:29.936Z,12.47
2022-11-07T00:51:56.736Z,11.97
2022-11-07T00:54:23.680Z,16.60
2022-11-07T00:56:50.496Z,13.77
2022-11-07T00:59:17.421Z,13.47
2022-11-07T01:01:44.365Z,13.97
2022-11-07T01:04:32.502Z,10.50
2022-11-07T01:06:59.584Z,15.37
2022-11-07T01:09:26.843Z,12.53
2022-11-07T01:11:53.688Z,13.13
2022-11-07T01:14:21.357Z,12.37
2022-11-07T01:16:48.266Z,12.77
2022-11-07T01:19:15.127Z,9.00
2022-11-07T01:21:42.456Z,20.53
2022-11-07T01:24:10.203Z,13.63
2022-11-07T01:26:37.333Z,9.57
2022-11-07T01:29:05.245Z,13.57
2022-11-07T01:31:32.103Z,16.67
2022-11-07T01:33:59.686Z,12.40
2022-11-07T01:36:26.877Z,12.57
2022-11-07T01:38:54.713Z,17.83
2022-11-07T01:41:26.752Z,15.63
2022-11-07T01:43:59.817Z,12.90
2022-11-07T01:46:33.317Z,15.87
2022-11-07T01:49:18.368Z,15.17
2022-11-07T01:51:47.954Z,14.00
2022-11-07T01:54:16.587Z,15.30
2022-11-07T01:56:43.409Z,15.60
2022-11-07T01:59:11.344Z,19.77
2022-11-07T02:01:38.412Z,9.40
2022-11-07T02:04:05.354Z,18.53
2022-11-07T02:06:37.717Z,20.07
2022-11-07T02:09:04.798Z,18.77
2022-11-07T02:11:31.734Z,18.43
2022-11-07T02:13:58.483Z,20.77
2022-11-07T02:16:25.276Z,14.63
2022-11-07T02:18:52.080Z,24.53
2022-11-07T02:21:25.317Z,19.20
2022-11-07T02:23:57.872Z,21.30
2022-11-07T02:26:24.880Z,19.50
2022-11-07T02:28:51.898Z,13.03
2022-11-07T02:31:18.701Z,16.13
2022-11-07T02:33:45.469Z,16.50
2022-11-07T02:36:15.195Z,17.77
2022-11-07T02:38:42.132Z,13.53
2022-11-07T02:41:12.711Z,21.37
2022-11-07T02:43:41.441Z,18.57
2022-11-07T02:46:10.657Z,19.13
2022-11-07T02:48:51.480Z,19.50
2022-11-07T02:51:18.283Z,22.60
2022-11-07T02:53:45.093Z,22.37
2022-11-07T02:56:11.909Z,15.87
2022-11-07T02:58:38.812Z,19.23
2022-11-07T03:01:08.811Z,22.00
2022-11-07T03:03:36.551Z,18.63
2022-11-07T03:06:03.383Z,24.40
2022-11-07T03:08:30.254Z,18.73
2022-11-07T03:10:57.082Z,18.20
2022-11-07T03:13:23.968Z,19.60
2022-11-07T03:15:50.903Z,17.60
2022-11-07T03:18:17.878Z,24.20
2022-11-07T03:20:44.776Z,18.53
2022-11-07T03:23:12.409Z,21.37
2022-11-07T03:25:39.450Z,27.47
2022-11-07T03:28:06.292Z,15.77
2022-11-07T03:30:33.373Z,18.53
2022-11-07T03:33:00.178Z,29.70
2022-11-07T03:35:27.972Z,17.17
2022-11-07T03:37:54.881Z,13.50
2022-11-07T03:40:21.681Z,19.37
2022-11-07T03:42:48.626Z,22.93
2022-11-07T03:45:15.732Z,16.53
2022-11-07T03:47:43.285Z,19.13
2022-11-07T03:50:12.286Z,22.07
2022-11-07T03:52:39.031Z,20.83
2022-11-07T03:55:06.445Z,19.73
2022-11-07T03:57:33.241Z,16.67
2022-11-07T03:59:59.993Z,20.87
2022-11-07T04:02:26.860Z,21.63
2022-11-07T04:04:53.788Z,25.50
2022-11-07T04:07:20.558Z,26.50
2022-11-07T04:09:48.905Z,19.87
2022-11-07T04:12:34.300Z,14.30
2022-11-07T04:15:19.851Z,19.40
2022-11-07T04:17:46.677Z,29.13
2022-11-07T04:20:13.464Z,15.63
2022-11-07T04:22:40.241Z,19.80
2022-11-07T04:25:07.697Z,23.93
2022-11-07T04:27:43.196Z,22.90
2022-11-07T04:30:23.861Z,20.80
2022-11-07T04:32:52.543Z,17.83
2022-11-07T04:35:20.478Z,25.57
2022-11-07T04:37:47.664Z,26.17
2022-11-07T04:40:14.722Z,15.80
2022-11-07T04:42:41.513Z,21.03
2022-11-07T04:45:08.809Z,21.43
2022-11-07T04:47:40.137Z,15.77
2022-11-07T04:50:09.150Z,18.67
2022-11-07T04:52:36.096Z,16.43
2022-11-07T04:55:02.941Z,14.83
2022-11-07T04:57:29.757Z,20.23
2022-11-07T04:59:56.628Z,24.57
2022-11-07T05:02:25.210Z,21.77
2022-11-07T05:04:52.673Z,26.27
2022-11-07T05:07:19.852Z,17.97
2022-11-07T05:09:46.744Z,21.27
2022-11-07T05:12:13.553Z,13.50
2022-11-07T05:14:41.345Z,21.53
2022-11-07T05:17:09.360Z,14.77
2022-11-07T05:19:36.165Z,20.07
2022-11-07T05:22:21.558Z,17.27
2022-11-07T05:24:48.353Z,24.93
2022-11-07T05:27:18.050Z,15.13
2022-11-07T05:29:45.070Z,22.37
2022-11-07T05:32:11.876Z,23.30
2022-11-07T05:34:38.638Z,16.10
2022-11-07T05:37:09.991Z,19.67
2022-11-07T05:39:37.062Z,24.20
2022-11-07T05:42:04.389Z,22.23
2022-11-07T05:44:31.328Z,16.37
2022-11-07T05:46:58.212Z,18.33
2022-11-07T05:49:25.402Z,21.37
2022-11-07T05:51:52.449Z,21.40
2022-11-07T05:54:19.320Z,22.00
2022-11-07T05:56:46.109Z,24.33
2022-11-07T05:59:12.965Z,20.07
2022-11-07T06:01:39.951Z,19.83
2022-11-07T06:04:07.488Z,15.37
2022-11-07T06:06:34.719Z,22.43
2022-11-07T06:09:01.529Z,20.00
2022-11-07T06:11:28.339Z,21.63
2022-11-07T06:13:55.148Z,19.17
2022-11-07T06:16:21.957Z,20.83
2022-11-07T06:18:48.765Z,17.30
2022-11-07T06:21:16.845Z,20.50
2022-11-07T06:23:43.786Z,27.30
2022-11-07T06:26:10.614Z,21.93
2022-11-07T06:28:37.452Z,18.63
2022-11-07T06:31:05.442Z,24.03
2022-11-07T06:33:32.269Z,19.97
2022-11-07T06:36:09.756Z,17.13
2022-11-07T06:38:36.961Z,15.50
2022-11-07T06:41:07.687Z,29.43
2022-11-07T06:43:34.623Z,22.07
2022-11-07T06:46:05.788Z,21.63
2022-11-07T06:48:32.695Z,27.80
2022-11-07T06:51:00.269Z,20.10
2022-11-07T06:53:27.312Z,30.03
2022-11-07T06:55:54.372Z,19.27
2022-11-07T06:58:21.687Z,19.93
2022-11-07T07:00:48.795Z,24.00
2022-11-07T07:03:15.853Z,22.33
2022-11-07T07:05:42.897Z,22.37
2022-11-07T07:08:10.657Z,28.47
2022-11-07T07:10:44.340Z,21.30
2022-11-07T07:13:11.783Z,22.00
2022-11-07T07:15:50.535Z,21.73
2022-11-07T07:18:18.340Z,23.07
2022-11-07T07:20:46.015Z,21.97
2022-11-07T07:23:12.905Z,19.67
2022-11-07T07:25:39.721Z,21.37
2022-11-07T07:28:06.533Z,17.97
2022-11-07T07:30:33.383Z,18.07
2022-11-07T07:33:00.165Z,19.83
2022-11-07T07:35:27.025Z,24.47
2022-11-07T07:37:53.947Z,15.10
2022-11-07T07:40:20.829Z,26.43
2022-11-07T07:42:47.641Z,19.30
2022-11-07T07:45:15.292Z,26.50
2022-11-07T07:47:43.148Z,17.40
2022-11-07T07:50:10.840Z,14.30
2022-11-07T07:52:37.650Z,15.40
2022-11-07T07:55:05.489Z,17.20
2022-11-07T07:57:32.254Z,22.67
2022-11-07T07:59:59.090Z,17.00
2022-11-07T08:02:25.972Z,26.47
2022-11-07T08:04:52.817Z,19.30
2022-11-07T08:07:19.649Z,16.48
2022-11-07T08:09:46.443Z,15.17
2022-11-07T08:12:13.269Z,19.70
2022-11-07T08:14:40.146Z,20.90
2022-11-07T08:17:06.920Z,16.77
2022-11-07T08:19:33.789Z,15.90
2022-11-07T08:22:00.609Z,16.53
2022-11-07T08:24:27.434Z,17.50
2022-11-07T08:26:54.261Z,17.17
2022-11-07T08:29:21.224Z,17.07
2022-11-07T08:31:50.659Z,23.73
2022-11-07T08:34:18.650Z,17.57
2022-11-07T08:36:45.805Z,18.23
2022-11-07T08:39:12.642Z,12.27
2022-11-07T08:41:39.697Z,13.75
2022-11-07T08:44:09.193Z,21.37
2022-11-07T08:46:35.984Z,18.00
2022-11-07T08:49:02.880Z,20.87
2022-11-07T08:51:29.698Z,20.73
2022-11-07T08:53:56.484Z,18.30
2022-11-07T08:56:23.470Z,22.67
2022-11-07T08:58:50.245Z,21.50
2022-11-07T09:01:17.179Z,17.23
2022-11-07T09:03:50.392Z,16.25
2022-11-07T09:06:21.786Z,21.57
2022-11-07T09:08:48.634Z,23.42
2022-11-07T09:11:18.791Z,22.05
2022-11-07T09:13:47.219Z,15.77
2022-11-07T09:16:17.501Z,25.47
2022-11-07T09:18:44.963Z,20.35
2022-11-07T09:21:11.910Z,14.70
2022-11-07T09:23:38.713Z,14.57
2022-11-07T09:26:05.958Z,20.30
2022-11-07T09:28:32.910Z,19.92
2022-11-07T09:31:00.286Z,15.15
2022-11-07T09:33:27.404Z,21.90
2022-11-07T09:35:54.362Z,23.63
2022-11-07T09:38:21.166Z,19.48
2022-11-07T09:40:57.043Z,20.55
2022-11-07T09:43:41.997Z,15.83
2022-11-07T09:46:11.890Z,20.45
2022-11-07T09:49:10.589Z,30.58
2022-11-07T09:51:42.744Z,40.88
2022-11-07T09:54:31.361Z,42.75
2022-11-07T09:56:59.539Z,47.58
2022-11-07T09:59:48.514Z,43.97
2022-11-07T10:02:16.738Z,45.75
2022-11-07T10:04:44.255Z,46.30
2022-11-07T10:07:32.632Z,41.72
2022-11-07T10:10:25.758Z,48.13
2022-11-07T10:13:12.949Z,50.50
2022-11-07T10:16:03.125Z,50.20
2022-11-07T10:18:40.184Z,43.53
2022-11-07T10:21:36.459Z,40.05
2022-11-07T10:24:15.225Z,38.97
2022-11-07T10:26:43.701Z,38.88
2022-11-07T10:29:14.514Z,36.50
2022-11-07T10:32:03.598Z,34.58
2022-11-07T10:34:35.160Z,31.55
2022-11-07T10:37:02.063Z,36.15
2022-11-07T10:39:29.756Z,32.85
2022-11-07T10:42:13.533Z,31.88
2022-11-07T10:44:41.680Z,41.15
2022-11-07T10:47:19.073Z,35.22
2022-11-07T10:49:59.338Z,33.22
2022-11-07T10:52:26.743Z,19.42
2022-11-07T10:55:06.113Z,23.10
2022-11-07T10:57:35.374Z,21.08
2022-11-07T11:00:02.379Z,24.30
2022-11-07T11:02:42.082Z,29.90
2022-11-07T11:05:25.576Z,30.88
2022-11-07T11:07:52.444Z,28.40
2022-11-07T11:10:28.485Z,24.70
2022-11-07T11:12:55.378Z,25.85
2022-11-07T11:15:24.197Z,23.10
2022-11-07T11:17:58.190Z,23.73
2022-11-07T11:20:34.176Z,25.52
2022-11-07T11:23:01.790Z,28.38
2022-11-07T11:25:28.555Z,22.10
2022-11-07T11:28:04.234Z,24.80
2022-11-07T11:30:31.032Z,23.05
2022-11-07T11:33:04.104Z,23.73
2022-11-07T11:35:53.909Z,23.27
2022-11-07T11:38:27.478Z,25.48
2022-11-07T11:41:10.978Z,26.25
2022-11-07T11:44:05.823Z,21.95
2022-11-07T11:46:58.694Z,24.08
2022-11-07T11:49:32.299Z,27.90
2022-11-07T11:52:07.433Z,27.17
2022-11-07T11:54:34.185Z,28.35
2022-11-07T11:57:26.828Z,27.40
2022-11-07T12:00:07.064Z,28.13
2022-11-07T12:02:52.397Z,27.42
2022-11-07T12:05:25.052Z,29.70
2022-11-07T12:07:51.887Z,29.75
2022-11-07T12:10:22.852Z,29.13
2022-11-07T12:12:56.369Z,34.55
2022-11-07T12:15:49.718Z,34.25
2022-11-07T12:18:19.342Z,35.72
2022-11-07T12:20:56.680Z,34.75
2022-11-07T12:24:25.245Z,34.33
2022-11-07T12:27:06.873Z,33.22
2022-11-07T12:29:52.323Z,30.80
2022-11-07T12:32:43.539Z,30.75
2022-11-07T12:35:22.014Z,33.70
2022-11-07T12:38:03.267Z,35.40
2022-11-07T12:40:56.174Z,38.30
2022-11-07T12:43:37.165Z,33.05
2022-11-07T12:46:28.717Z,36.75
2022-11-07T12:49:33.529Z,35.35
2022-11-07T12:52:25.257Z,35.85
2022-11-07T12:55:01.501Z,45.47
2022-11-07T12:57:32.748Z,37.08
2022-11-07T13:00:19.900Z,40.22
2022-11-07T13:03:09.988Z,41.42
2022-11-07T13:05:57.449Z,42.00
2022-11-07T13:08:34.724Z,31.92
2022-11-07T13:11:18.392Z,39.20
2022-11-07T13:14:06.393Z,35.92
2022-11-07T13:16:36.824Z,42.50
2022-11-07T13:19:13.166Z,47.05
2022-11-07T13:21:41.861Z,49.15
2022-11-07T13:24:09.035Z,44.33
2022-11-07T13:26:51.130Z,57.75
2022-11-07T13:29:24.006Z,45.80
2022-11-07T13:32:06.000Z,48.50
2022-11-07T13:34:54.143Z,60.65
2022-11-07T13:37:29.910Z,53.47
2022-11-07T13:40:07.367Z,54.15
2022-11-07T13:42:34.313Z,57.75
2022-11-07T13:45:19.296Z,53.05
2022-11-07T13:47:46.218Z,49.17
2022-11-07T13:50:21.590Z,58.08
2022-11-07T13:52:58.794Z,52.05
2022-11-07T13:55:28.637Z,64.13
2022-11-07T13:58:03.902Z,63.17
2022-11-07T14:00:31.225Z,63.60
2022-11-07T14:02:58.695Z,62.35
2022-11-07T14:05:27.415Z,62.80
2022-11-07T14:08:02.580Z,63.35
2022-11-07T14:10:42.127Z,52.80
2022-11-07T14:13:27.069Z,53.67
2022-11-07T14:15:58.866Z,54.50
2022-11-07T14:18:31.766Z,52.50
2022-11-07T14:20:59.128Z,52.95
2022-11-07T14:23:30.222Z,43.25
2022-11-07T14:26:26.417Z,41.55
2022-11-07T14:28:57.665Z,36.88
2022-11-07T14:31:29.659Z,42.17
2022-11-07T14:34:01.343Z,36.90
2022-11-07T14:36:28.445Z,37.42
2022-11-07T14:39:00.263Z,37.65
2022-11-07T14:41:27.170Z,35.33
2022-11-07T14:43:53.983Z,36.67
2022-11-07T14:46:22.690Z,38.55
2022-11-07T14:48:51.410Z,38.53
2022-11-07T14:51:21.902Z,38.42
2022-11-07T14:54:00.765Z,33.97
2022-11-07T14:56:33.014Z,35.42
2022-11-07T14:58:59.791Z,36.58
2022-11-07T15:01:29.353Z,38.40
2022-11-07T15:04:01.786Z,41.95
2022-11-07T15:06:33.503Z,40.80
2022-11-07T15:09:05.499Z,40.20
2022-11-07T15:11:34.306Z,35.97
2022-11-07T15:14:01.985Z,35.08
2022-11-07T15:16:39.124Z,43.00
2022-11-07T15:19:07.281Z,40.58
2022-11-07T15:21:36.005Z,38.28
2022-11-07T15:24:42.029Z,43.10
2022-11-07T15:27:17.364Z,37.38
2022-11-07T15:29:53.335Z,37.90
2022-11-07T15:32:21.725Z,34.28
2022-11-07T15:35:12.449Z,43.72
2022-11-07T15:37:52.079Z,39.75
2022-11-07T15:40:19.007Z,41.95
2022-11-07T15:42:46.121Z,40.20
2022-11-07T15:45:13.004Z,38.75
2022-11-07T15:47:39.937Z,40.90
2022-11-07T15:50:27.068Z,38.22
2022-11-07T15:52:54.147Z,40.72
2022-11-07T15:55:22.283Z,42.72
2022-11-07T15:57:53.125Z,39.13
2022-11-07T16:00:24.341Z,38.90
2022-11-07T16:02:51.542Z,40.83
2022-11-07T16:05:18.505Z,40.75
2022-11-07T16:07:45.574Z,40.83
2022-11-07T16:10:21.689Z,34.85
2022-11-07T16:12:49.496Z,36.20
2022-11-07T16:15:17.292Z,40.42
2022-11-07T16:17:44.295Z,38.67
2022-11-07T16:20:16.267Z,44.20
2022-11-07T16:22:44.348Z,40.80
2022-11-07T16:25:21.838Z,37.10
2022-11-07T16:27:56.251Z,40.13
2022-11-07T16:30:24.865Z,42.53
2022-11-07T16:32:51.648Z,40.83
2022-11-07T16:35:18.423Z,36.60
2022-11-07T16:37:45.261Z,32.47
2022-11-07T16:40:14.375Z,34.47
2022-11-07T16:42:41.182Z,33.83
2022-11-07T16:45:08.467Z,36.00
2022-11-07T16:47:37.358Z,34.88
2022-11-07T16:50:04.337Z,37.58
2022-11-07T16:52:31.265Z,34.13
2022-11-07T16:54:58.160Z,39.78
2022-11-07T16:57:25.231Z,36.83
2022-11-07T16:59:52.708Z,36.33
2022-11-07T17:02:23.991Z,48.88
2022-11-07T17:04:52.124Z,50.90
2022-11-07T17:07:19.571Z,47.97
2022-11-07T17:09:46.381Z,48.72
2022-11-07T17:12:21.652Z,51.25
2022-11-07T17:14:48.685Z,47.88
2022-11-07T17:17:16.503Z,49.83
2022-11-07T17:19:43.413Z,44.85
2022-11-07T17:22:13.468Z,40.85
2022-11-07T17:24:40.379Z,42.55
2022-11-07T17:27:33.503Z,43.13
2022-11-07T17:30:03.217Z,43.13
2022-11-07T17:32:32.750Z,47.53
2022-11-07T17:35:25.555Z,42.40
2022-11-07T17:37:46.493Z,46.35
2022-11-07T17:40:24.850Z,47.38
2022-11-07T17:42:51.683Z,46.72
2022-11-07T17:45:18.846Z,43.85
2022-11-07T17:47:45.664Z,46.22
2022-11-07T17:50:18.477Z,43.38
2022-11-07T17:52:45.349Z,35.13
2022-11-07T17:55:12.236Z,51.33
2022-11-07T17:57:39.085Z,51.60
2022-11-07T18:00:15.705Z,51.42
2022-11-07T18:02:42.670Z,49.72
2022-11-07T18:05:14.371Z,52.95
2022-11-07T18:07:41.329Z,52.17
2022-11-07T18:10:08.965Z,52.85
2022-11-07T18:12:35.728Z,53.20
2022-11-07T18:15:02.550Z,52.60
2022-11-07T18:17:29.365Z,51.47
2022-11-07T18:19:56.205Z,48.85
2022-11-07T18:22:22.970Z,54.88
2022-11-07T18:24:49.723Z,58.33
2022-11-07T18:27:16.538Z,58.80
2022-11-07T18:29:43.373Z,61.58
2022-11-07T18:32:10.139Z,54.70
2022-11-07T18:34:38.044Z,48.28
2022-11-07T18:37:04.820Z,49.05
2022-11-07T18:39:31.670Z,54.75
2022-11-07T18:41:58.501Z,45.53
2022-11-07T18:44:25.367Z,46.72
2022-11-07T18:46:52.150Z,50.35
2022-11-07T18:49:19.693Z,42.72
2022-11-07T18:51:46.530Z,49.22
2022-11-07T18:54:13.970Z,44.75
2022-11-07T18:56:41.157Z,45.50
2022-11-07T18:59:07.969Z,43.83
2022-11-07T19:01:34.937Z,48.58
2022-11-07T19:04:03.635Z,45.22
2022-11-07T19:06:30.781Z,39.45
2022-11-07T19:08:57.678Z,40.53
2022-11-07T19:11:31.487Z,40.20
2022-11-07T19:14:00.885Z,42.15
2022-11-07T19:16:28.137Z,45.35
2022-11-07T19:18:54.966Z,45.22
2022-11-07T19:21:22.161Z,46.95
2022-11-07T19:23:50.026Z,51.28
2022-11-07T19:26:17.028Z,48.53
2022-11-07T19:28:43.820Z,53.63
2022-11-07T19:31:12.811Z,55.08
2022-11-07T19:33:40.807Z,51.22
2022-11-07T19:36:09.608Z,52.25
2022-11-07T19:38:36.454Z,45.00
2022-11-07T19:41:06.938Z,41.55
2022-11-07T19:43:34.000Z,45.05
2022-11-07T19:46:05.297Z,41.35
2022-11-07T19:48:32.082Z,39.67
2022-11-07T19:50:58.963Z,36.63
2022-11-07T19:53:25.760Z,35.05
2022-11-07T19:55:52.551Z,37.63
2022-11-07T19:58:19.389Z,34.55
2022-11-07T20:00:46.256Z,33.88
2022-11-07T20:03:13.195Z,34.33
2022-11-07T20:05:40.338Z,35.00
2022-11-07T20:08:07.172Z,37.65
2022-11-07T20:10:34.018Z,40.35
2022-11-07T20:13:00.829Z,38.38
2022-11-07T20:15:27.618Z,41.28
2022-11-07T20:17:54.485Z,37.97
2022-11-07T20:20:21.292Z,36.45
2022-11-07T20:22:48.116Z,34.97
2022-11-07T20:25:14.986Z,30.75
2022-11-07T20:27:41.879Z,33.90
2022-11-07T20:30:09.466Z,33.65
2022-11-07T20:32:36.361Z,22.95
2022-11-07T20:35:03.467Z,35.83
2022-11-07T20:37:30.337Z,40.50
2022-11-07T20:39:57.171Z,31.98
2022-11-07T20:42:24.053Z,24.25
2022-11-07T20:44:51.149Z,25.48
2022-11-07T20:47:18.250Z,29.20
2022-11-07T20:49:45.012Z,27.58
2022-11-07T20:52:11.851Z,38.17
2022-11-07T20:54:38.640Z,38.35
2022-11-07T20:57:05.478Z,37.38
2022-11-07T20:59:32.283Z,43.17
2022-11-07T21:02:03.147Z,47.30
2022-11-07T21:04:44.495Z,48.47
2022-11-07T21:07:19.728Z,48.05
2022-11-07T21:09:46.758Z,54.53
2022-11-07T21:12:13.645Z,67.43
2022-11-07T21:14:42.283Z,71.63
2022-11-07T21:17:09.888Z,74.60
2022-11-07T21:19:36.774Z,75.40
2022-11-07T21:22:04.248Z,78.97
2022-11-07T21:24:31.694Z,78.95
2022-11-07T21:26:58.721Z,89.70
2022-11-07T21:29:29.572Z,88.78
2022-11-07T21:31:58.370Z,80.03
2022-11-07T21:34:25.289Z,75.82
2022-11-07T21:36:52.073Z,80.57
2022-11-07T21:39:18.843Z,75.43
2022-11-07T21:41:45.701Z,71.53
2022-11-07T21:44:12.665Z,69.45
2022-11-07T21:46:39.628Z,57.47
2022-11-07T21:49:06.697Z,67.13
2022-11-07T21:51:34.374Z,76.63
2022-11-07T21:54:01.297Z,78.45
2022-11-07T21:56:32.600Z,79.55
2022-11-07T21:59:03.288Z,84.05
2022-11-07T22:01:35.119Z,86.15
2022-11-07T22:04:11.101Z,83.38
2022-11-07T22:06:44.053Z,87.03
2022-11-07T22:09:15.695Z,94.88
2022-11-07T22:11:42.746Z,90.70
2022-11-07T22:14:12.585Z,100.05
2022-11-07T22:16:39.541Z,101.00
2022-11-07T22:19:12.008Z,102.15
2022-11-07T22:21:39.611Z,79.95
2022-11-07T22:24:06.809Z,75.25
2022-11-07T22:26:33.751Z,73.05
2022-11-07T22:29:00.599Z,70.18
2022-11-07T22:31:30.293Z,68.78
2022-11-07T22:33:58.161Z,59.30
2022-11-07T22:36:25.068Z,57.85
2022-11-07T22:38:51.947Z,59.67
2022-11-07T22:41:20.541Z,62.40
2022-11-07T22:43:47.723Z,62.92
2022-11-07T22:46:19.153Z,57.30
2022-11-07T22:48:46.408Z,58.00
2022-11-07T22:51:15.181Z,55.83
2022-11-07T22:53:42.091Z,56.33
2022-11-07T22:56:19.078Z,55.70
2022-11-07T22:58:46.508Z,48.07
2022-11-07T23:01:16.297Z,48.97
2022-11-07T23:03:43.130Z,44.13
2022-11-07T23:06:10.275Z,52.07
2022-11-07T23:08:37.374Z,52.08
2022-11-07T23:11:44.047Z,53.28
2022-11-07T23:14:00.676Z,53.40
2022-11-07T23:16:34.930Z,47.20
2022-11-07T23:19:03.372Z,52.15
2022-11-07T23:21:30.273Z,52.45
2022-11-07T23:23:58.726Z,55.13
2022-11-07T23:26:26.155Z,53.28
2022-11-07T23:28:53.308Z,49.07
2022-11-07T23:31:20.258Z,62.03
2022-11-07T23:33:47.094Z,55.77
2022-11-07T23:36:17.751Z,58.60
2022-11-07T23:38:44.836Z,54.67
2022-11-07T23:41:13.132Z,64.95
2022-11-07T23:43:40.171Z,65.80
2022-11-07T23:46:25.632Z,63.27
2022-11-07T23:49:14.607Z,64.13
2022-11-07T23:51:42.193Z,63.80
2022-11-07T23:54:27.559Z,60.67
2022-11-07T23:56:54.466Z,57.73
2022-11-07T23:59:39.674Z,59.03
